sensor_id;sensor_type;location;lat;lon;timestamp;P1;durP1;ratioP1;P2;durP2;ratioP2
14078;SDS011;7115;50.150;8.568;2023-05-10T00:01:35;1.17;;;0.33;;
14078;SDS011;7115;50.150;8.568;2023-05-10T00:04:03;0.33;;;0.30;;
14078;SDS011;7115;50.150;8.568;2023-05-10T00:06:31;1.07;;;0.30;;
14078;SDS011;7115;50.150;8.568;2023-05-10T00:08:58;0.50;;;0.40;;
14078;SDS011;7115;50.150;8.568;2023-05-10T00:11:25;0.47;;;0.37;;
14078;SDS011;7115;50.150;8.568;2023-05-10T00:13:52;0.50;;;0.50;;
14078;SDS011;7115;50.150;8.568;2023-05-10T00:16:19;0.73;;;0.30;;
14078;SDS011;7115;50.150;8.568;2023-05-10T00:18:46;4.17;;;0.40;;
14078;SDS011;7115;50.150;8.568;2023-05-10T00:21:14;2.80;;;0.60;;
14078;SDS011;7115;50.150;8.568;2023-05-10T00:23:41;0.93;;;0.30;;
14078;SDS011;7115;50.150;8.568;2023-05-10T00:26:07;0.73;;;0.43;;
14078;SDS011;7115;50.150;8.568;2023-05-10T00:28:34;1.50;;;0.33;;
14078;SDS011;7115;50.150;8.568;2023-05-10T00:31:01;0.83;;;0.77;;
14078;SDS011;7115;50.150;8.568;2023-05-10T00:33:28;1.27;;;0.30;;
14078;SDS011;7115;50.150;8.568;2023-05-10T00:35:55;0.50;;;0.50;;
14078;SDS011;7115;50.150;8.568;2023-05-10T00:38:23;0.50;;;0.47;;
14078;SDS011;7115;50.150;8.568;2023-05-10T00:40:50;2.43;;;0.50;;
14078;SDS011;7115;50.150;8.568;2023-05-10T00:43:17;0.30;;;0.30;;
14078;SDS011;7115;50.150;8.568;2023-05-10T00:45:44;0.80;;;0.30;;
14078;SDS011;7115;50.150;8.568;2023-05-10T00:48:11;2.20;;;0.30;;
14078;SDS011;7115;50.150;8.568;2023-05-10T00:50:38;0.27;;;0.27;;
14078;SDS011;7115;50.150;8.568;2023-05-10T00:53:06;0.43;;;0.30;;
14078;SDS011;7115;50.150;8.568;2023-05-10T00:55:35;6.13;;;0.40;;
14078;SDS011;7115;50.150;8.568;2023-05-10T00:58:03;0.77;;;0.40;;
14078;SDS011;7115;50.150;8.568;2023-05-10T01:00:31;1.07;;;0.53;;
14078;SDS011;7115;50.150;8.568;2023-05-10T01:02:59;0.97;;;0.57;;
14078;SDS011;7115;50.150;8.568;2023-05-10T01:05:26;1.57;;;0.60;;
14078;SDS011;7115;50.150;8.568;2023-05-10T01:07:53;1.47;;;0.43;;
14078;SDS011;7115;50.150;8.568;2023-05-10T01:10:20;0.40;;;0.40;;
14078;SDS011;7115;50.150;8.568;2023-05-10T01:12:49;0.73;;;0.40;;
14078;SDS011;7115;50.150;8.568;2023-05-10T01:15:17;0.50;;;0.40;;
14078;SDS011;7115;50.150;8.568;2023-05-10T01:17:45;0.40;;;0.33;;
14078;SDS011;7115;50.150;8.568;2023-05-10T01:20:13;0.57;;;0.57;;
14078;SDS011;7115;50.150;8.568;2023-05-10T01:22:45;2.07;;;0.30;;
14078;SDS011;7115;50.150;8.568;2023-05-10T01:25:31;0.87;;;0.40;;
14078;SDS011;7115;50.150;8.568;2023-05-10T01:28:39;0.50;;;0.40;;
14078;SDS011;7115;50.150;8.568;2023-05-10T01:31:30;0.50;;;0.30;;
14078;SDS011;7115;50.150;8.568;2023-05-10T01:34:19;0.30;;;0.30;;
14078;SDS011;7115;50.150;8.568;2023-05-10T01:36:53;0.30;;;0.30;;
14078;SDS011;7115;50.150;8.568;2023-05-10T01:39:25;2.87;;;0.27;;
14078;SDS011;7115;50.150;8.568;2023-05-10T01:42:03;0.40;;;0.37;;
14078;SDS011;7115;50.150;8.568;2023-05-10T01:44:35;0.23;;;0.20;;
14078;SDS011;7115;50.150;8.568;2023-05-10T01:47:09;0.67;;;0.40;;
14078;SDS011;7115;50.150;8.568;2023-05-10T01:49:39;1.03;;;0.30;;
14078;SDS011;7115;50.150;8.568;2023-05-10T01:52:10;0.93;;;0.17;;
14078;SDS011;7115;50.150;8.568;2023-05-10T01:54:41;0.30;;;0.20;;
14078;SDS011;7115;50.150;8.568;2023-05-10T01:57:13;0.50;;;0.33;;
14078;SDS011;7115;50.150;8.568;2023-05-10T01:59:42;3.00;;;0.50;;
14078;SDS011;7115;50.150;8.568;2023-05-10T02:02:13;2.43;;;0.40;;
14078;SDS011;7115;50.150;8.568;2023-05-10T02:04:41;0.30;;;0.27;;
14078;SDS011;7115;50.150;8.568;2023-05-10T02:07:09;0.20;;;0.20;;
14078;SDS011;7115;50.150;8.568;2023-05-10T02:09:37;0.40;;;0.30;;
14078;SDS011;7115;50.150;8.568;2023-05-10T02:12:05;0.40;;;0.30;;
14078;SDS011;7115;50.150;8.568;2023-05-10T02:14:34;1.50;;;0.40;;
14078;SDS011;7115;50.150;8.568;2023-05-10T02:17:03;3.03;;;0.53;;
14078;SDS011;7115;50.150;8.568;2023-05-10T02:19:33;0.63;;;0.30;;
14078;SDS011;7115;50.150;8.568;2023-05-10T02:22:02;0.60;;;0.43;;
14078;SDS011;7115;50.150;8.568;2023-05-10T02:24:30;2.77;;;0.60;;
14078;SDS011;7115;50.150;8.568;2023-05-10T02:26:58;0.60;;;0.60;;
14078;SDS011;7115;50.150;8.568;2023-05-10T02:29:26;0.57;;;0.50;;
14078;SDS011;7115;50.150;8.568;2023-05-10T02:31:54;1.00;;;0.70;;
14078;SDS011;7115;50.150;8.568;2023-05-10T02:34:22;1.87;;;0.70;;
14078;SDS011;7115;50.150;8.568;2023-05-10T02:36:53;2.20;;;0.70;;
14078;SDS011;7115;50.150;8.568;2023-05-10T02:39:21;0.83;;;0.80;;
14078;SDS011;7115;50.150;8.568;2023-05-10T02:41:49;0.87;;;0.77;;
14078;SDS011;7115;50.150;8.568;2023-05-10T02:44:18;0.80;;;0.73;;
14078;SDS011;7115;50.150;8.568;2023-05-10T02:46:46;6.57;;;0.80;;
14078;SDS011;7115;50.150;8.568;2023-05-10T02:49:14;1.27;;;0.70;;
14078;SDS011;7115;50.150;8.568;2023-05-10T02:51:42;1.20;;;0.80;;
14078;SDS011;7115;50.150;8.568;2023-05-10T02:54:15;3.10;;;0.67;;
14078;SDS011;7115;50.150;8.568;2023-05-10T02:56:47;0.70;;;0.70;;
14078;SDS011;7115;50.150;8.568;2023-05-10T02:59:19;1.43;;;0.87;;
14078;SDS011;7115;50.150;8.568;2023-05-10T03:01:46;2.07;;;0.60;;
14078;SDS011;7115;50.150;8.568;2023-05-10T03:04:13;0.63;;;0.63;;
14078;SDS011;7115;50.150;8.568;2023-05-10T03:06:41;0.60;;;0.60;;
14078;SDS011;7115;50.150;8.568;2023-05-10T03:09:08;1.17;;;0.87;;
14078;SDS011;7115;50.150;8.568;2023-05-10T03:11:43;0.77;;;0.67;;
14078;SDS011;7115;50.150;8.568;2023-05-10T03:14:18;3.37;;;1.13;;
14078;SDS011;7115;50.150;8.568;2023-05-10T03:16:52;2.30;;;0.83;;
14078;SDS011;7115;50.150;8.568;2023-05-10T03:19:24;1.97;;;0.70;;
14078;SDS011;7115;50.150;8.568;2023-05-10T03:21:57;1.77;;;0.80;;
14078;SDS011;7115;50.150;8.568;2023-05-10T03:24:27;1.93;;;0.70;;
14078;SDS011;7115;50.150;8.568;2023-05-10T03:26:56;1.23;;;0.90;;
14078;SDS011;7115;50.150;8.568;2023-05-10T03:29:28;1.30;;;0.80;;
14078;SDS011;7115;50.150;8.568;2023-05-10T03:31:57;2.03;;;1.20;;
14078;SDS011;7115;50.150;8.568;2023-05-10T03:34:25;2.20;;;1.10;;
14078;SDS011;7115;50.150;8.568;2023-05-10T03:36:52;3.50;;;1.40;;
14078;SDS011;7115;50.150;8.568;2023-05-10T03:39:19;1.70;;;1.30;;
14078;SDS011;7115;50.150;8.568;2023-05-10T03:41:47;1.80;;;1.60;;
14078;SDS011;7115;50.150;8.568;2023-05-10T03:44:15;3.10;;;1.20;;
14078;SDS011;7115;50.150;8.568;2023-05-10T03:46:42;3.17;;;1.53;;
14078;SDS011;7115;50.150;8.568;2023-05-10T03:49:09;1.20;;;1.10;;
14078;SDS011;7115;50.150;8.568;2023-05-10T03:51:36;2.07;;;1.07;;
14078;SDS011;7115;50.150;8.568;2023-05-10T03:54:03;1.53;;;1.30;;
14078;SDS011;7115;50.150;8.568;2023-05-10T03:56:30;1.37;;;1.20;;
14078;SDS011;7115;50.150;8.568;2023-05-10T03:58:57;3.17;;;1.40;;
14078;SDS011;7115;50.150;8.568;2023-05-10T04:01:25;1.37;;;0.90;;
14078;SDS011;7115;50.150;8.568;2023-05-10T04:03:52;3.67;;;1.17;;
14078;SDS011;7115;50.150;8.568;2023-05-10T04:06:19;1.93;;;1.23;;
14078;SDS011;7115;50.150;8.568;2023-05-10T04:08:46;1.63;;;1.17;;
14078;SDS011;7115;50.150;8.568;2023-05-10T04:11:13;3.17;;;1.30;;
14078;SDS011;7115;50.150;8.568;2023-05-10T04:13:40;2.30;;;1.20;;
14078;SDS011;7115;50.150;8.568;2023-05-10T04:16:07;2.37;;;1.43;;
14078;SDS011;7115;50.150;8.568;2023-05-10T04:18:35;3.57;;;1.40;;
14078;SDS011;7115;50.150;8.568;2023-05-10T04:21:02;2.03;;;1.33;;
14078;SDS011;7115;50.150;8.568;2023-05-10T04:23:29;1.03;;;0.93;;
14078;SDS011;7115;50.150;8.568;2023-05-10T04:25:59;2.60;;;1.17;;
14078;SDS011;7115;50.150;8.568;2023-05-10T04:28:26;4.27;;;1.33;;
14078;SDS011;7115;50.150;8.568;2023-05-10T04:31:00;2.90;;;1.27;;
14078;SDS011;7115;50.150;8.568;2023-05-10T04:33:27;1.70;;;1.20;;
14078;SDS011;7115;50.150;8.568;2023-05-10T04:35:56;1.97;;;1.27;;
14078;SDS011;7115;50.150;8.568;2023-05-10T04:38:23;6.67;;;1.50;;
14078;SDS011;7115;50.150;8.568;2023-05-10T04:40:50;1.63;;;1.10;;
14078;SDS011;7115;50.150;8.568;2023-05-10T04:43:17;1.83;;;0.80;;
14078;SDS011;7115;50.150;8.568;2023-05-10T04:45:44;1.70;;;1.20;;
14078;SDS011;7115;50.150;8.568;2023-05-10T04:48:11;1.07;;;1.00;;
14078;SDS011;7115;50.150;8.568;2023-05-10T04:50:38;1.87;;;1.20;;
14078;SDS011;7115;50.150;8.568;2023-05-10T04:53:07;2.03;;;1.10;;
14078;SDS011;7115;50.150;8.568;2023-05-10T04:55:34;2.27;;;1.13;;
14078;SDS011;7115;50.150;8.568;2023-05-10T04:58:01;2.70;;;1.50;;
14078;SDS011;7115;50.150;8.568;2023-05-10T05:00:28;5.30;;;1.20;;
14078;SDS011;7115;50.150;8.568;2023-05-10T05:02:56;1.63;;;1.53;;
14078;SDS011;7115;50.150;8.568;2023-05-10T05:05:23;1.90;;;1.60;;
14078;SDS011;7115;50.150;8.568;2023-05-10T05:07:49;1.90;;;1.60;;
14078;SDS011;7115;50.150;8.568;2023-05-10T05:10:18;3.83;;;1.40;;
14078;SDS011;7115;50.150;8.568;2023-05-10T05:12:45;5.43;;;1.67;;
14078;SDS011;7115;50.150;8.568;2023-05-10T05:15:12;4.43;;;1.73;;
14078;SDS011;7115;50.150;8.568;2023-05-10T05:17:39;2.37;;;1.67;;
14078;SDS011;7115;50.150;8.568;2023-05-10T05:20:06;2.80;;;1.90;;
14078;SDS011;7115;50.150;8.568;2023-05-10T05:22:35;3.23;;;1.97;;
14078;SDS011;7115;50.150;8.568;2023-05-10T05:25:02;3.23;;;1.80;;
14078;SDS011;7115;50.150;8.568;2023-05-10T05:27:31;2.73;;;1.93;;
14078;SDS011;7115;50.150;8.568;2023-05-10T05:29:58;2.00;;;1.80;;
14078;SDS011;7115;50.150;8.568;2023-05-10T05:32:25;3.10;;;1.87;;
14078;SDS011;7115;50.150;8.568;2023-05-10T05:34:52;3.33;;;2.37;;
14078;SDS011;7115;50.150;8.568;2023-05-10T05:37:19;2.50;;;2.20;;
14078;SDS011;7115;50.150;8.568;2023-05-10T05:39:47;3.53;;;2.10;;
14078;SDS011;7115;50.150;8.568;2023-05-10T05:42:14;3.70;;;2.07;;
14078;SDS011;7115;50.150;8.568;2023-05-10T05:44:45;2.23;;;2.03;;
14078;SDS011;7115;50.150;8.568;2023-05-10T05:47:12;2.87;;;1.73;;
14078;SDS011;7115;50.150;8.568;2023-05-10T05:49:39;3.53;;;2.17;;
14078;SDS011;7115;50.150;8.568;2023-05-10T05:52:06;7.50;;;2.10;;
14078;SDS011;7115;50.150;8.568;2023-05-10T05:54:33;2.73;;;1.93;;
14078;SDS011;7115;50.150;8.568;2023-05-10T05:57:00;8.23;;;2.20;;
14078;SDS011;7115;50.150;8.568;2023-05-10T05:59:27;4.47;;;2.77;;
14078;SDS011;7115;50.150;8.568;2023-05-10T06:01:55;5.47;;;2.47;;
14078;SDS011;7115;50.150;8.568;2023-05-10T06:04:22;2.23;;;2.03;;
14078;SDS011;7115;50.150;8.568;2023-05-10T06:06:49;2.17;;;1.97;;
14078;SDS011;7115;50.150;8.568;2023-05-10T06:09:16;4.03;;;2.33;;
14078;SDS011;7115;50.150;8.568;2023-05-10T06:11:43;3.77;;;2.60;;
14078;SDS011;7115;50.150;8.568;2023-05-10T06:14:10;3.20;;;2.53;;
14078;SDS011;7115;50.150;8.568;2023-05-10T06:16:37;2.77;;;2.27;;
14078;SDS011;7115;50.150;8.568;2023-05-10T06:19:05;3.23;;;2.07;;
14078;SDS011;7115;50.150;8.568;2023-05-10T06:21:32;3.33;;;2.13;;
14078;SDS011;7115;50.150;8.568;2023-05-10T06:23:59;7.83;;;2.20;;
14078;SDS011;7115;50.150;8.568;2023-05-10T06:26:26;15.47;;;7.20;;
14078;SDS011;7115;50.150;8.568;2023-05-10T06:28:53;4.80;;;2.70;;
14078;SDS011;7115;50.150;8.568;2023-05-10T06:31:20;3.70;;;2.50;;
14078;SDS011;7115;50.150;8.568;2023-05-10T06:33:47;2.93;;;2.13;;
14078;SDS011;7115;50.150;8.568;2023-05-10T06:36:15;3.17;;;2.53;;
14078;SDS011;7115;50.150;8.568;2023-05-10T06:38:42;3.63;;;2.67;;
14078;SDS011;7115;50.150;8.568;2023-05-10T06:41:09;5.37;;;2.63;;
14078;SDS011;7115;50.150;8.568;2023-05-10T06:43:36;2.73;;;1.80;;
14078;SDS011;7115;50.150;8.568;2023-05-10T06:46:06;3.93;;;2.60;;
14078;SDS011;7115;50.150;8.568;2023-05-10T06:48:33;3.63;;;2.17;;
14078;SDS011;7115;50.150;8.568;2023-05-10T06:51:00;5.50;;;2.00;;
14078;SDS011;7115;50.150;8.568;2023-05-10T06:53:28;3.33;;;2.10;;
14078;SDS011;7115;50.150;8.568;2023-05-10T06:55:56;4.57;;;2.53;;
14078;SDS011;7115;50.150;8.568;2023-05-10T06:58:22;3.07;;;2.03;;
14078;SDS011;7115;50.150;8.568;2023-05-10T07:00:49;2.83;;;1.87;;
14078;SDS011;7115;50.150;8.568;2023-05-10T07:03:17;6.67;;;2.10;;
14078;SDS011;7115;50.150;8.568;2023-05-10T07:05:44;2.67;;;1.80;;
14078;SDS011;7115;50.150;8.568;2023-05-10T07:08:11;4.33;;;2.43;;
14078;SDS011;7115;50.150;8.568;2023-05-10T07:10:40;5.93;;;2.30;;
14078;SDS011;7115;50.150;8.568;2023-05-10T07:13:07;4.27;;;2.33;;
14078;SDS011;7115;50.150;8.568;2023-05-10T07:15:35;4.67;;;2.63;;
14078;SDS011;7115;50.150;8.568;2023-05-10T07:18:02;5.43;;;2.63;;
14078;SDS011;7115;50.150;8.568;2023-05-10T07:20:33;4.57;;;2.60;;
14078;SDS011;7115;50.150;8.568;2023-05-10T07:23:01;3.33;;;2.57;;
14078;SDS011;7115;50.150;8.568;2023-05-10T07:25:29;5.87;;;2.33;;
14078;SDS011;7115;50.150;8.568;2023-05-10T07:27:57;4.00;;;2.37;;
14078;SDS011;7115;50.150;8.568;2023-05-10T07:30:24;7.30;;;2.57;;
14078;SDS011;7115;50.150;8.568;2023-05-10T07:32:52;6.90;;;2.77;;
14078;SDS011;7115;50.150;8.568;2023-05-10T07:35:20;3.70;;;1.87;;
14078;SDS011;7115;50.150;8.568;2023-05-10T07:37:48;3.77;;;2.20;;
14078;SDS011;7115;50.150;8.568;2023-05-10T07:40:15;7.10;;;2.70;;
14078;SDS011;7115;50.150;8.568;2023-05-10T07:42:42;3.83;;;2.87;;
14078;SDS011;7115;50.150;8.568;2023-05-10T07:45:11;3.10;;;2.13;;
14078;SDS011;7115;50.150;8.568;2023-05-10T07:47:38;4.70;;;2.27;;
14078;SDS011;7115;50.150;8.568;2023-05-10T07:50:06;5.00;;;2.27;;
14078;SDS011;7115;50.150;8.568;2023-05-10T07:52:33;3.53;;;2.23;;
14078;SDS011;7115;50.150;8.568;2023-05-10T07:55:01;4.80;;;1.90;;
14078;SDS011;7115;50.150;8.568;2023-05-10T07:57:28;4.97;;;2.10;;
14078;SDS011;7115;50.150;8.568;2023-05-10T07:59:55;3.40;;;1.93;;
14078;SDS011;7115;50.150;8.568;2023-05-10T08:02:24;5.30;;;1.50;;
14078;SDS011;7115;50.150;8.568;2023-05-10T08:04:51;4.63;;;2.00;;
14078;SDS011;7115;50.150;8.568;2023-05-10T08:07:19;4.63;;;1.50;;
14078;SDS011;7115;50.150;8.568;2023-05-10T08:09:46;3.60;;;2.03;;
14078;SDS011;7115;50.150;8.568;2023-05-10T08:12:12;5.67;;;1.80;;
14078;SDS011;7115;50.150;8.568;2023-05-10T08:14:39;2.50;;;1.80;;
14078;SDS011;7115;50.150;8.568;2023-05-10T08:17:07;4.33;;;1.97;;
14078;SDS011;7115;50.150;8.568;2023-05-10T08:19:37;2.27;;;1.53;;
14078;SDS011;7115;50.150;8.568;2023-05-10T08:22:04;2.53;;;2.00;;
14078;SDS011;7115;50.150;8.568;2023-05-10T08:24:33;3.20;;;1.40;;
14078;SDS011;7115;50.150;8.568;2023-05-10T08:27:04;4.87;;;1.53;;
14078;SDS011;7115;50.150;8.568;2023-05-10T08:29:31;2.43;;;1.70;;
14078;SDS011;7115;50.150;8.568;2023-05-10T08:32:00;3.33;;;1.33;;
14078;SDS011;7115;50.150;8.568;2023-05-10T08:34:27;1.70;;;1.40;;
14078;SDS011;7115;50.150;8.568;2023-05-10T08:36:56;3.03;;;1.77;;
14078;SDS011;7115;50.150;8.568;2023-05-10T08:39:23;5.87;;;1.80;;
14078;SDS011;7115;50.150;8.568;2023-05-10T08:41:57;3.73;;;1.77;;
14078;SDS011;7115;50.150;8.568;2023-05-10T08:44:27;3.00;;;1.70;;
14078;SDS011;7115;50.150;8.568;2023-05-10T08:46:54;4.00;;;1.30;;
14078;SDS011;7115;50.150;8.568;2023-05-10T08:49:23;5.37;;;1.80;;
14078;SDS011;7115;50.150;8.568;2023-05-10T08:51:54;2.77;;;1.80;;
14078;SDS011;7115;50.150;8.568;2023-05-10T08:54:23;2.80;;;1.87;;
14078;SDS011;7115;50.150;8.568;2023-05-10T08:56:51;2.67;;;1.50;;
14078;SDS011;7115;50.150;8.568;2023-05-10T08:59:19;6.40;;;1.93;;
14078;SDS011;7115;50.150;8.568;2023-05-10T09:01:46;3.33;;;1.97;;
14078;SDS011;7115;50.150;8.568;2023-05-10T09:04:15;2.10;;;1.57;;
14078;SDS011;7115;50.150;8.568;2023-05-10T09:06:42;6.20;;;2.20;;
14078;SDS011;7115;50.150;8.568;2023-05-10T09:09:10;3.87;;;2.30;;
14078;SDS011;7115;50.150;8.568;2023-05-10T09:11:38;4.67;;;1.57;;
14078;SDS011;7115;50.150;8.568;2023-05-10T09:14:06;2.07;;;1.50;;
14078;SDS011;7115;50.150;8.568;2023-05-10T09:16:33;2.83;;;1.50;;
14078;SDS011;7115;50.150;8.568;2023-05-10T09:19:00;1.87;;;1.17;;
14078;SDS011;7115;50.150;8.568;2023-05-10T09:21:27;5.90;;;1.70;;
14078;SDS011;7115;50.150;8.568;2023-05-10T09:23:54;3.87;;;1.67;;
14078;SDS011;7115;50.150;8.568;2023-05-10T09:26:23;2.10;;;1.60;;
14078;SDS011;7115;50.150;8.568;2023-05-10T09:28:51;2.87;;;1.47;;
14078;SDS011;7115;50.150;8.568;2023-05-10T09:31:19;2.03;;;1.40;;
14078;SDS011;7115;50.150;8.568;2023-05-10T09:33:48;2.80;;;1.37;;
14078;SDS011;7115;50.150;8.568;2023-05-10T09:36:15;2.67;;;1.43;;
14078;SDS011;7115;50.150;8.568;2023-05-10T09:38:46;3.43;;;1.60;;
14078;SDS011;7115;50.150;8.568;2023-05-10T09:41:18;2.37;;;1.10;;
14078;SDS011;7115;50.150;8.568;2023-05-10T09:43:48;3.60;;;2.07;;
14078;SDS011;7115;50.150;8.568;2023-05-10T09:46:15;1.80;;;1.10;;
14078;SDS011;7115;50.150;8.568;2023-05-10T09:48:43;2.30;;;1.17;;
14078;SDS011;7115;50.150;8.568;2023-05-10T09:51:16;2.07;;;1.20;;
14078;SDS011;7115;50.150;8.568;2023-05-10T09:53:45;2.00;;;1.00;;
14078;SDS011;7115;50.150;8.568;2023-05-10T09:56:12;1.43;;;0.90;;
14078;SDS011;7115;50.150;8.568;2023-05-10T09:58:39;2.53;;;1.13;;
14078;SDS011;7115;50.150;8.568;2023-05-10T10:01:11;2.50;;;0.93;;
14078;SDS011;7115;50.150;8.568;2023-05-10T10:03:41;5.10;;;1.30;;
14078;SDS011;7115;50.150;8.568;2023-05-10T10:06:09;2.83;;;1.20;;
14078;SDS011;7115;50.150;8.568;2023-05-10T10:08:54;2.97;;;1.33;;
14078;SDS011;7115;50.150;8.568;2023-05-10T10:11:23;3.53;;;1.40;;
14078;SDS011;7115;50.150;8.568;2023-05-10T10:13:50;2.93;;;1.30;;
14078;SDS011;7115;50.150;8.568;2023-05-10T10:16:19;2.87;;;1.20;;
14078;SDS011;7115;50.150;8.568;2023-05-10T10:18:47;2.00;;;1.30;;
14078;SDS011;7115;50.150;8.568;2023-05-10T10:21:15;4.17;;;1.37;;
14078;SDS011;7115;50.150;8.568;2023-05-10T10:23:43;3.60;;;1.67;;
14078;SDS011;7115;50.150;8.568;2023-05-10T10:26:10;3.13;;;1.40;;
14078;SDS011;7115;50.150;8.568;2023-05-10T10:28:39;3.77;;;1.80;;
14078;SDS011;7115;50.150;8.568;2023-05-10T10:31:15;4.20;;;1.67;;
14078;SDS011;7115;50.150;8.568;2023-05-10T10:33:56;2.77;;;2.07;;
14078;SDS011;7115;50.150;8.568;2023-05-10T10:36:27;4.70;;;1.50;;
14078;SDS011;7115;50.150;8.568;2023-05-10T10:38:54;1.47;;;0.73;;
14078;SDS011;7115;50.150;8.568;2023-05-10T10:41:29;1.13;;;0.67;;
14078;SDS011;7115;50.150;8.568;2023-05-10T10:47:23;0.40;;;0.33;;
14078;SDS011;7115;50.150;8.568;2023-05-10T10:49:51;0.60;;;0.40;;
14078;SDS011;7115;50.150;8.568;2023-05-10T10:52:30;0.60;;;0.60;;
14078;SDS011;7115;50.150;8.568;2023-05-10T10:55:00;1.97;;;0.83;;
14078;SDS011;7115;50.150;8.568;2023-05-10T10:57:31;1.63;;;0.60;;
14078;SDS011;7115;50.150;8.568;2023-05-10T11:02:50;2.00;;;1.10;;
14078;SDS011;7115;50.150;8.568;2023-05-10T11:08:17;2.03;;;0.60;;
14078;SDS011;7115;50.150;8.568;2023-05-10T11:10:52;0.60;;;0.50;;
14078;SDS011;7115;50.150;8.568;2023-05-10T11:13:34;3.17;;;0.70;;
14078;SDS011;7115;50.150;8.568;2023-05-10T11:16:11;3.07;;;0.70;;
14078;SDS011;7115;50.150;8.568;2023-05-10T11:18:41;2.40;;;0.70;;
14078;SDS011;7115;50.150;8.568;2023-05-10T11:21:19;7.93;;;3.73;;
14078;SDS011;7115;50.150;8.568;2023-05-10T11:23:50;2.97;;;0.70;;
14078;SDS011;7115;50.150;8.568;2023-05-10T11:26:18;3.33;;;1.00;;
14078;SDS011;7115;50.150;8.568;2023-05-10T11:28:49;3.60;;;1.00;;
14078;SDS011;7115;50.150;8.568;2023-05-10T11:31:17;1.63;;;0.47;;
14078;SDS011;7115;50.150;8.568;2023-05-10T11:33:46;1.67;;;0.63;;
14078;SDS011;7115;50.150;8.568;2023-05-10T11:36:14;1.23;;;0.30;;
14078;SDS011;7115;50.150;8.568;2023-05-10T11:38:41;3.53;;;0.37;;
14078;SDS011;7115;50.150;8.568;2023-05-10T11:41:08;2.93;;;0.70;;
14078;SDS011;7115;50.150;8.568;2023-05-10T11:43:36;2.17;;;0.50;;
14078;SDS011;7115;50.150;8.568;2023-05-10T11:46:04;1.43;;;0.90;;
14078;SDS011;7115;50.150;8.568;2023-05-10T11:48:32;0.60;;;0.47;;
14078;SDS011;7115;50.150;8.568;2023-05-10T11:51:01;0.50;;;0.50;;
14078;SDS011;7115;50.150;8.568;2023-05-10T11:53:29;2.00;;;0.50;;
14078;SDS011;7115;50.150;8.568;2023-05-10T11:56:02;1.60;;;0.60;;
14078;SDS011;7115;50.150;8.568;2023-05-10T11:58:30;4.33;;;0.83;;
14078;SDS011;7115;50.150;8.568;2023-05-10T12:00:57;0.60;;;0.40;;
14078;SDS011;7115;50.150;8.568;2023-05-10T12:03:24;1.43;;;0.53;;
14078;SDS011;7115;50.150;8.568;2023-05-10T12:05:51;1.07;;;0.30;;
14078;SDS011;7115;50.150;8.568;2023-05-10T12:08:21;1.23;;;0.90;;
14078;SDS011;7115;50.150;8.568;2023-05-10T12:10:49;0.50;;;0.43;;
14078;SDS011;7115;50.150;8.568;2023-05-10T12:13:17;5.30;;;0.50;;
14078;SDS011;7115;50.150;8.568;2023-05-10T12:15:45;1.33;;;0.70;;
14078;SDS011;7115;50.150;8.568;2023-05-10T12:18:13;2.60;;;0.50;;
14078;SDS011;7115;50.150;8.568;2023-05-10T12:20:41;2.70;;;0.60;;
14078;SDS011;7115;50.150;8.568;2023-05-10T12:23:08;1.07;;;0.40;;
14078;SDS011;7115;50.150;8.568;2023-05-10T12:25:37;1.00;;;0.40;;
14078;SDS011;7115;50.150;8.568;2023-05-10T12:28:06;1.63;;;0.60;;
14078;SDS011;7115;50.150;8.568;2023-05-10T12:30:35;0.77;;;0.33;;
14078;SDS011;7115;50.150;8.568;2023-05-10T12:33:09;2.10;;;0.50;;
14078;SDS011;7115;50.150;8.568;2023-05-10T12:35:44;2.40;;;0.40;;
14078;SDS011;7115;50.150;8.568;2023-05-10T12:38:24;1.23;;;0.40;;
14078;SDS011;7115;50.150;8.568;2023-05-10T12:40:54;1.00;;;0.50;;
14078;SDS011;7115;50.150;8.568;2023-05-10T12:43:21;2.17;;;0.50;;
14078;SDS011;7115;50.150;8.568;2023-05-10T12:45:48;0.70;;;0.30;;
14078;SDS011;7115;50.150;8.568;2023-05-10T12:48:16;1.03;;;0.40;;
14078;SDS011;7115;50.150;8.568;2023-05-10T12:50:43;0.60;;;0.50;;
14078;SDS011;7115;50.150;8.568;2023-05-10T12:53:10;1.87;;;0.73;;
14078;SDS011;7115;50.150;8.568;2023-05-10T12:55:37;1.07;;;0.57;;
14078;SDS011;7115;50.150;8.568;2023-05-10T12:58:05;0.53;;;0.47;;
14078;SDS011;7115;50.150;8.568;2023-05-10T13:00:32;0.57;;;0.40;;
14078;SDS011;7115;50.150;8.568;2023-05-10T13:02:59;2.60;;;0.63;;
14078;SDS011;7115;50.150;8.568;2023-05-10T13:05:26;1.60;;;0.70;;
14078;SDS011;7115;50.150;8.568;2023-05-10T13:07:53;2.37;;;0.70;;
14078;SDS011;7115;50.150;8.568;2023-05-10T13:10:19;0.50;;;0.50;;
14078;SDS011;7115;50.150;8.568;2023-05-10T13:12:47;1.90;;;0.37;;
14078;SDS011;7115;50.150;8.568;2023-05-10T13:15:15;0.40;;;0.40;;
14078;SDS011;7115;50.150;8.568;2023-05-10T13:17:42;0.97;;;0.40;;
14078;SDS011;7115;50.150;8.568;2023-05-10T13:20:10;2.40;;;0.70;;
14078;SDS011;7115;50.150;8.568;2023-05-10T13:22:37;2.60;;;0.50;;
14078;SDS011;7115;50.150;8.568;2023-05-10T13:25:06;1.70;;;0.50;;
14078;SDS011;7115;50.150;8.568;2023-05-10T13:27:33;0.60;;;0.60;;
14078;SDS011;7115;50.150;8.568;2023-05-10T13:30:00;8.70;;;2.73;;
14078;SDS011;7115;50.150;8.568;2023-05-10T13:32:29;1.10;;;0.50;;
14078;SDS011;7115;50.150;8.568;2023-05-10T13:34:56;2.20;;;0.60;;
14078;SDS011;7115;50.150;8.568;2023-05-10T13:37:22;2.20;;;0.70;;
14078;SDS011;7115;50.150;8.568;2023-05-10T13:39:49;1.33;;;0.33;;
14078;SDS011;7115;50.150;8.568;2023-05-10T13:42:16;1.43;;;0.47;;
14078;SDS011;7115;50.150;8.568;2023-05-10T13:44:43;1.57;;;0.40;;
14078;SDS011;7115;50.150;8.568;2023-05-10T13:47:10;2.90;;;0.30;;
14078;SDS011;7115;50.150;8.568;2023-05-10T13:49:38;0.70;;;0.47;;
14078;SDS011;7115;50.150;8.568;2023-05-10T13:52:05;1.67;;;0.30;;
14078;SDS011;7115;50.150;8.568;2023-05-10T13:54:36;1.87;;;0.90;;
14078;SDS011;7115;50.150;8.568;2023-05-10T13:57:04;0.57;;;0.37;;
14078;SDS011;7115;50.150;8.568;2023-05-10T13:59:31;1.80;;;0.33;;
14078;SDS011;7115;50.150;8.568;2023-05-10T14:01:58;0.40;;;0.30;;
14078;SDS011;7115;50.150;8.568;2023-05-10T14:04:26;2.30;;;0.30;;
14078;SDS011;7115;50.150;8.568;2023-05-10T14:06:55;3.23;;;0.37;;
14078;SDS011;7115;50.150;8.568;2023-05-10T14:09:21;0.70;;;0.33;;
14078;SDS011;7115;50.150;8.568;2023-05-10T14:11:48;1.67;;;0.20;;
14078;SDS011;7115;50.150;8.568;2023-05-10T14:14:15;1.27;;;0.30;;
14078;SDS011;7115;50.150;8.568;2023-05-10T14:16:43;0.70;;;0.30;;
14078;SDS011;7115;50.150;8.568;2023-05-10T14:19:11;1.53;;;0.63;;
14078;SDS011;7115;50.150;8.568;2023-05-10T14:21:38;1.27;;;0.30;;
14078;SDS011;7115;50.150;8.568;2023-05-10T14:24:06;2.30;;;0.23;;
14078;SDS011;7115;50.150;8.568;2023-05-10T14:26:33;0.30;;;0.20;;
14078;SDS011;7115;50.150;8.568;2023-05-10T14:29:00;1.37;;;0.40;;
14078;SDS011;7115;50.150;8.568;2023-05-10T14:31:27;0.73;;;0.53;;
14078;SDS011;7115;50.150;8.568;2023-05-10T14:33:56;0.23;;;0.20;;
14078;SDS011;7115;50.150;8.568;2023-05-10T14:36:24;0.33;;;0.33;;
14078;SDS011;7115;50.150;8.568;2023-05-10T14:38:51;3.00;;;1.87;;
14078;SDS011;7115;50.150;8.568;2023-05-10T14:41:19;1.23;;;0.43;;
14078;SDS011;7115;50.150;8.568;2023-05-10T14:43:46;0.40;;;0.40;;
14078;SDS011;7115;50.150;8.568;2023-05-10T14:46:13;0.93;;;0.30;;
14078;SDS011;7115;50.150;8.568;2023-05-10T14:48:39;1.27;;;0.40;;
14078;SDS011;7115;50.150;8.568;2023-05-10T14:51:06;1.13;;;0.40;;
14078;SDS011;7115;50.150;8.568;2023-05-10T14:53:33;0.37;;;0.37;;
14078;SDS011;7115;50.150;8.568;2023-05-10T14:56:00;0.37;;;0.30;;
14078;SDS011;7115;50.150;8.568;2023-05-10T14:58:29;1.17;;;0.50;;
14078;SDS011;7115;50.150;8.568;2023-05-10T15:00:59;3.40;;;0.43;;
14078;SDS011;7115;50.150;8.568;2023-05-10T15:03:26;2.60;;;0.40;;
14078;SDS011;7115;50.150;8.568;2023-05-10T15:05:56;0.30;;;0.20;;
14078;SDS011;7115;50.150;8.568;2023-05-10T15:08:24;0.50;;;0.30;;
14078;SDS011;7115;50.150;8.568;2023-05-10T15:10:51;0.50;;;0.40;;
14078;SDS011;7115;50.150;8.568;2023-05-10T15:13:18;0.97;;;0.30;;
14078;SDS011;7115;50.150;8.568;2023-05-10T15:15:47;1.73;;;0.27;;
14078;SDS011;7115;50.150;8.568;2023-05-10T15:18:14;1.30;;;0.40;;